sensor_id;sensor_type;location;lat;lon;timestamp;P1;durP1;ratioP1;P2;durP2;ratioP2
20431;SDS011;10375;49.136;10.366;2023-04-19T00:00:11;17.27;;;12.33;;
20431;SDS011;10375;49.136;10.366;2023-04-19T00:02:39;16.07;;;11.97;;
20431;SDS011;10375;49.136;10.366;2023-04-19T00:05:08;18.92;;;12.52;;
20431;SDS011;10375;49.136;10.366;2023-04-19T00:07:37;20.63;;;11.55;;
20431;SDS011;10375;49.136;10.366;2023-04-19T00:10:04;19.17;;;12.13;;
20431;SDS011;10375;49.136;10.366;2023-04-19T00:12:32;18.73;;;12.37;;
20431;SDS011;10375;49.136;10.366;2023-04-19T00:14:59;18.17;;;12.90;;
20431;SDS011;10375;49.136;10.366;2023-04-19T00:17:26;25.67;;;13.00;;
20431;SDS011;10375;49.136;10.366;2023-04-19T00:19:54;16.63;;;11.90;;
20431;SDS011;10375;49.136;10.366;2023-04-19T00:22:22;16.27;;;11.27;;
20431;SDS011;10375;49.136;10.366;2023-04-19T00:24:49;16.57;;;12.10;;
20431;SDS011;10375;49.136;10.366;2023-04-19T00:27:16;16.17;;;11.30;;
20431;SDS011;10375;49.136;10.366;2023-04-19T00:29:43;19.47;;;12.97;;
20431;SDS011;10375;49.136;10.366;2023-04-19T00:32:10;19.98;;;11.88;;
20431;SDS011;10375;49.136;10.366;2023-04-19T00:34:37;17.40;;;12.50;;
20431;SDS011;10375;49.136;10.366;2023-04-19T00:37:04;20.98;;;12.02;;
20431;SDS011;10375;49.136;10.366;2023-04-19T00:39:31;17.13;;;12.65;;
20431;SDS011;10375;49.136;10.366;2023-04-19T00:41:58;17.53;;;11.70;;
20431;SDS011;10375;49.136;10.366;2023-04-19T00:44:26;23.23;;;12.48;;
20431;SDS011;10375;49.136;10.366;2023-04-19T00:46:54;20.40;;;12.38;;
20431;SDS011;10375;49.136;10.366;2023-04-19T00:49:22;17.50;;;11.23;;
20431;SDS011;10375;49.136;10.366;2023-04-19T00:51:50;15.70;;;11.65;;
20431;SDS011;10375;49.136;10.366;2023-04-19T00:54:17;17.50;;;11.67;;
20431;SDS011;10375;49.136;10.366;2023-04-19T00:56:45;17.83;;;11.57;;
20431;SDS011;10375;49.136;10.366;2023-04-19T00:59:15;20.03;;;12.93;;
20431;SDS011;10375;49.136;10.366;2023-04-19T01:01:43;18.67;;;12.47;;
20431;SDS011;10375;49.136;10.366;2023-04-19T01:04:11;16.67;;;11.70;;
20431;SDS011;10375;49.136;10.366;2023-04-19T01:06:39;16.90;;;11.90;;
20431;SDS011;10375;49.136;10.366;2023-04-19T01:09:07;17.40;;;12.03;;
20431;SDS011;10375;49.136;10.366;2023-04-19T01:11:34;15.50;;;11.30;;
20431;SDS011;10375;49.136;10.366;2023-04-19T01:14:01;19.03;;;10.87;;
20431;SDS011;10375;49.136;10.366;2023-04-19T01:16:28;23.40;;;11.43;;
20431;SDS011;10375;49.136;10.366;2023-04-19T01:18:56;16.60;;;11.60;;
20431;SDS011;10375;49.136;10.366;2023-04-19T01:21:22;17.83;;;11.27;;
20431;SDS011;10375;49.136;10.366;2023-04-19T01:23:50;18.53;;;11.77;;
20431;SDS011;10375;49.136;10.366;2023-04-19T01:26:17;17.60;;;11.43;;
20431;SDS011;10375;49.136;10.366;2023-04-19T01:28:44;16.90;;;11.10;;
20431;SDS011;10375;49.136;10.366;2023-04-19T01:31:11;17.73;;;11.43;;
20431;SDS011;10375;49.136;10.366;2023-04-19T01:33:39;17.80;;;11.27;;
20431;SDS011;10375;49.136;10.366;2023-04-19T01:36:06;17.17;;;11.63;;
20431;SDS011;10375;49.136;10.366;2023-04-19T01:38:33;19.00;;;12.60;;
20431;SDS011;10375;49.136;10.366;2023-04-19T01:41:01;19.77;;;11.53;;
20431;SDS011;10375;49.136;10.366;2023-04-19T01:43:28;16.77;;;11.53;;
20431;SDS011;10375;49.136;10.366;2023-04-19T01:45:55;16.33;;;10.97;;
20431;SDS011;10375;49.136;10.366;2023-04-19T01:48:22;18.20;;;12.00;;
20431;SDS011;10375;49.136;10.366;2023-04-19T01:50:49;17.63;;;11.77;;
20431;SDS011;10375;49.136;10.366;2023-04-19T01:53:16;17.20;;;11.17;;
20431;SDS011;10375;49.136;10.366;2023-04-19T01:55:43;13.47;;;10.13;;
20431;SDS011;10375;49.136;10.366;2023-04-19T01:58:10;14.97;;;10.17;;
20431;SDS011;10375;49.136;10.366;2023-04-19T02:00:38;15.27;;;11.27;;
20431;SDS011;10375;49.136;10.366;2023-04-19T02:03:05;16.87;;;11.10;;
20431;SDS011;10375;49.136;10.366;2023-04-19T02:05:32;18.53;;;11.30;;
20431;SDS011;10375;49.136;10.366;2023-04-19T02:07:59;15.77;;;10.43;;
20431;SDS011;10375;49.136;10.366;2023-04-19T02:10:26;24.73;;;11.37;;
20431;SDS011;10375;49.136;10.366;2023-04-19T02:12:53;13.83;;;9.47;;
20431;SDS011;10375;49.136;10.366;2023-04-19T02:15:20;19.67;;;11.20;;
20431;SDS011;10375;49.136;10.366;2023-04-19T02:17:47;18.13;;;10.40;;
20431;SDS011;10375;49.136;10.366;2023-04-19T02:20:16;19.93;;;10.60;;
20431;SDS011;10375;49.136;10.366;2023-04-19T02:22:42;13.90;;;10.43;;
20431;SDS011;10375;49.136;10.366;2023-04-19T02:25:09;14.33;;;10.40;;
20431;SDS011;10375;49.136;10.366;2023-04-19T02:27:37;14.57;;;10.37;;
20431;SDS011;10375;49.136;10.366;2023-04-19T02:30:04;12.90;;;10.10;;
20431;SDS011;10375;49.136;10.366;2023-04-19T02:32:31;15.27;;;10.60;;
20431;SDS011;10375;49.136;10.366;2023-04-19T02:34:58;15.40;;;10.10;;
20431;SDS011;10375;49.136;10.366;2023-04-19T02:37:25;17.00;;;10.20;;
20431;SDS011;10375;49.136;10.366;2023-04-19T02:39:52;15.47;;;11.03;;
20431;SDS011;10375;49.136;10.366;2023-04-19T02:42:19;14.27;;;11.00;;
20431;SDS011;10375;49.136;10.366;2023-04-19T02:44:46;14.87;;;10.53;;
20431;SDS011;10375;49.136;10.366;2023-04-19T02:47:14;16.20;;;11.13;;
20431;SDS011;10375;49.136;10.366;2023-04-19T02:49:41;17.17;;;11.53;;
20431;SDS011;10375;49.136;10.366;2023-04-19T02:52:08;18.03;;;11.90;;
20431;SDS011;10375;49.136;10.366;2023-04-19T02:54:35;16.23;;;11.00;;
20431;SDS011;10375;49.136;10.366;2023-04-19T02:57:03;15.13;;;10.50;;
20431;SDS011;10375;49.136;10.366;2023-04-19T02:59:30;17.03;;;11.07;;
20431;SDS011;10375;49.136;10.366;2023-04-19T03:01:57;18.07;;;10.47;;
20431;SDS011;10375;49.136;10.366;2023-04-19T03:04:24;19.30;;;12.23;;
20431;SDS011;10375;49.136;10.366;2023-04-19T03:06:51;15.23;;;11.63;;
20431;SDS011;10375;49.136;10.366;2023-04-19T03:09:19;15.60;;;10.27;;
20431;SDS011;10375;49.136;10.366;2023-04-19T03:11:46;14.23;;;10.97;;
20431;SDS011;10375;49.136;10.366;2023-04-19T03:14:13;17.50;;;11.27;;
20431;SDS011;10375;49.136;10.366;2023-04-19T03:16:40;17.90;;;11.53;;
20431;SDS011;10375;49.136;10.366;2023-04-19T03:19:07;16.20;;;11.23;;
20431;SDS011;10375;49.136;10.366;2023-04-19T03:21:34;17.17;;;11.67;;
20431;SDS011;10375;49.136;10.366;2023-04-19T03:24:01;16.53;;;11.73;;
20431;SDS011;10375;49.136;10.366;2023-04-19T03:26:28;17.47;;;11.90;;
20431;SDS011;10375;49.136;10.366;2023-04-19T03:28:55;16.90;;;11.67;;
20431;SDS011;10375;49.136;10.366;2023-04-19T03:31:22;21.03;;;12.43;;
20431;SDS011;10375;49.136;10.366;2023-04-19T03:33:50;21.20;;;11.83;;
20431;SDS011;10375;49.136;10.366;2023-04-19T03:36:17;22.10;;;12.40;;
20431;SDS011;10375;49.136;10.366;2023-04-19T03:38:44;19.17;;;12.13;;
20431;SDS011;10375;49.136;10.366;2023-04-19T03:41:18;30.93;;;13.40;;
20431;SDS011;10375;49.136;10.366;2023-04-19T03:43:46;18.30;;;12.13;;
20431;SDS011;10375;49.136;10.366;2023-04-19T03:46:13;23.17;;;12.97;;
20431;SDS011;10375;49.136;10.366;2023-04-19T03:48:40;26.40;;;12.90;;
20431;SDS011;10375;49.136;10.366;2023-04-19T03:51:07;20.53;;;13.47;;
20431;SDS011;10375;49.136;10.366;2023-04-19T03:53:35;17.87;;;13.13;;
20431;SDS011;10375;49.136;10.366;2023-04-19T03:56:02;18.30;;;12.10;;
20431;SDS011;10375;49.136;10.366;2023-04-19T03:58:29;20.73;;;13.43;;
20431;SDS011;10375;49.136;10.366;2023-04-19T04:00:57;24.63;;;14.17;;
20431;SDS011;10375;49.136;10.366;2023-04-19T04:03:24;22.30;;;12.50;;
20431;SDS011;10375;49.136;10.366;2023-04-19T04:05:52;38.37;;;12.73;;
20431;SDS011;10375;49.136;10.366;2023-04-19T04:08:19;18.53;;;12.60;;
20431;SDS011;10375;49.136;10.366;2023-04-19T04:10:46;20.03;;;13.37;;
20431;SDS011;10375;49.136;10.366;2023-04-19T04:13:13;23.07;;;13.03;;
20431;SDS011;10375;49.136;10.366;2023-04-19T04:15:40;20.17;;;13.00;;
20431;SDS011;10375;49.136;10.366;2023-04-19T04:18:08;69.73;;;17.03;;
20431;SDS011;10375;49.136;10.366;2023-04-19T04:20:35;46.87;;;14.67;;
20431;SDS011;10375;49.136;10.366;2023-04-19T04:23:02;33.93;;;13.97;;
20431;SDS011;10375;49.136;10.366;2023-04-19T04:25:29;20.00;;;13.00;;
20431;SDS011;10375;49.136;10.366;2023-04-19T04:27:58;20.50;;;13.10;;
20431;SDS011;10375;49.136;10.366;2023-04-19T04:30:25;16.30;;;12.00;;
20431;SDS011;10375;49.136;10.366;2023-04-19T04:32:54;20.93;;;12.17;;
20431;SDS011;10375;49.136;10.366;2023-04-19T04:35:23;25.00;;;14.20;;
20431;SDS011;10375;49.136;10.366;2023-04-19T04:37:51;46.40;;;14.07;;
20431;SDS011;10375;49.136;10.366;2023-04-19T04:40:21;23.93;;;12.87;;
20431;SDS011;10375;49.136;10.366;2023-04-19T04:42:48;20.10;;;13.17;;
20431;SDS011;10375;49.136;10.366;2023-04-19T04:45:18;19.40;;;12.67;;
20431;SDS011;10375;49.136;10.366;2023-04-19T04:47:45;23.60;;;13.97;;
20431;SDS011;10375;49.136;10.366;2023-04-19T04:50:13;21.90;;;13.20;;
20431;SDS011;10375;49.136;10.366;2023-04-19T04:52:40;21.87;;;14.00;;
20431;SDS011;10375;49.136;10.366;2023-04-19T04:55:07;23.93;;;14.33;;
20431;SDS011;10375;49.136;10.366;2023-04-19T04:57:34;20.37;;;13.03;;
20431;SDS011;10375;49.136;10.366;2023-04-19T05:00:02;20.33;;;13.70;;
20431;SDS011;10375;49.136;10.366;2023-04-19T05:02:31;20.83;;;12.07;;
20431;SDS011;10375;49.136;10.366;2023-04-19T05:04:58;31.87;;;14.23;;
20431;SDS011;10375;49.136;10.366;2023-04-19T05:07:25;21.57;;;12.83;;
20431;SDS011;10375;49.136;10.366;2023-04-19T05:09:52;20.87;;;13.47;;
20431;SDS011;10375;49.136;10.366;2023-04-19T05:12:19;20.70;;;13.70;;
20431;SDS011;10375;49.136;10.366;2023-04-19T05:14:46;24.05;;;12.32;;
20431;SDS011;10375;49.136;10.366;2023-04-19T05:17:13;21.03;;;13.27;;
20431;SDS011;10375;49.136;10.366;2023-04-19T05:19:40;23.20;;;12.90;;
20431;SDS011;10375;49.136;10.366;2023-04-19T05:22:07;17.97;;;12.77;;
20431;SDS011;10375;49.136;10.366;2023-04-19T05:24:34;19.20;;;12.63;;
20431;SDS011;10375;49.136;10.366;2023-04-19T05:27:01;18.15;;;11.68;;
20431;SDS011;10375;49.136;10.366;2023-04-19T05:29:28;21.10;;;13.37;;
20431;SDS011;10375;49.136;10.366;2023-04-19T05:31:56;18.88;;;12.70;;
20431;SDS011;10375;49.136;10.366;2023-04-19T05:34:23;25.37;;;13.50;;
20431;SDS011;10375;49.136;10.366;2023-04-19T05:36:50;17.83;;;13.30;;
20431;SDS011;10375;49.136;10.366;2023-04-19T05:39:17;19.83;;;12.50;;
20431;SDS011;10375;49.136;10.366;2023-04-19T05:41:44;20.70;;;13.23;;
20431;SDS011;10375;49.136;10.366;2023-04-19T05:44:11;18.83;;;11.20;;
20431;SDS011;10375;49.136;10.366;2023-04-19T05:46:39;18.30;;;13.40;;
20431;SDS011;10375;49.136;10.366;2023-04-19T05:49:06;19.47;;;11.77;;
20431;SDS011;10375;49.136;10.366;2023-04-19T05:51:33;18.87;;;12.63;;
20431;SDS011;10375;49.136;10.366;2023-04-19T05:54:00;19.23;;;13.03;;
20431;SDS011;10375;49.136;10.366;2023-04-19T05:56:27;22.17;;;12.10;;
20431;SDS011;10375;49.136;10.366;2023-04-19T05:58:54;17.77;;;12.27;;
20431;SDS011;10375;49.136;10.366;2023-04-19T06:01:22;17.03;;;12.33;;
20431;SDS011;10375;49.136;10.366;2023-04-19T06:03:49;18.95;;;12.48;;
20431;SDS011;10375;49.136;10.366;2023-04-19T06:06:20;19.63;;;12.57;;
20431;SDS011;10375;49.136;10.366;2023-04-19T06:08:48;16.63;;;11.82;;
20431;SDS011;10375;49.136;10.366;2023-04-19T06:11:19;30.40;;;11.95;;
20431;SDS011;10375;49.136;10.366;2023-04-19T06:13:56;18.00;;;12.45;;
20431;SDS011;10375;49.136;10.366;2023-04-19T06:16:24;18.20;;;12.77;;
20431;SDS011;10375;49.136;10.366;2023-04-19T06:18:51;19.80;;;12.25;;
20431;SDS011;10375;49.136;10.366;2023-04-19T06:21:18;17.42;;;12.48;;
20431;SDS011;10375;49.136;10.366;2023-04-19T06:23:45;14.63;;;11.02;;
20431;SDS011;10375;49.136;10.366;2023-04-19T06:26:12;19.73;;;12.98;;
20431;SDS011;10375;49.136;10.366;2023-04-19T06:28:39;17.02;;;11.75;;
20431;SDS011;10375;49.136;10.366;2023-04-19T06:31:06;19.45;;;12.05;;
20431;SDS011;10375;49.136;10.366;2023-04-19T06:33:33;17.92;;;12.80;;
20431;SDS011;10375;49.136;10.366;2023-04-19T06:36:00;21.13;;;12.05;;
20431;SDS011;10375;49.136;10.366;2023-04-19T06:38:28;15.30;;;11.05;;
20431;SDS011;10375;49.136;10.366;2023-04-19T06:40:55;16.20;;;12.48;;
20431;SDS011;10375;49.136;10.366;2023-04-19T06:43:22;16.20;;;11.00;;
20431;SDS011;10375;49.136;10.366;2023-04-19T06:45:56;16.92;;;11.23;;
20431;SDS011;10375;49.136;10.366;2023-04-19T06:48:27;16.73;;;11.27;;
20431;SDS011;10375;49.136;10.366;2023-04-19T06:50:54;18.75;;;11.25;;
20431;SDS011;10375;49.136;10.366;2023-04-19T06:53:21;18.02;;;11.70;;
20431;SDS011;10375;49.136;10.366;2023-04-19T06:55:52;21.88;;;12.18;;
20431;SDS011;10375;49.136;10.366;2023-04-19T06:58:22;20.05;;;12.32;;
20431;SDS011;10375;49.136;10.366;2023-04-19T07:00:49;16.98;;;11.65;;
20431;SDS011;10375;49.136;10.366;2023-04-19T07:03:17;18.07;;;12.10;;
20431;SDS011;10375;49.136;10.366;2023-04-19T07:05:44;19.05;;;11.48;;
20431;SDS011;10375;49.136;10.366;2023-04-19T07:08:11;18.38;;;12.85;;
20431;SDS011;10375;49.136;10.366;2023-04-19T07:10:38;17.42;;;11.75;;
20431;SDS011;10375;49.136;10.366;2023-04-19T07:13:05;16.45;;;12.15;;
20431;SDS011;10375;49.136;10.366;2023-04-19T07:15:32;20.52;;;13.30;;
20431;SDS011;10375;49.136;10.366;2023-04-19T07:17:59;21.48;;;12.65;;
20431;SDS011;10375;49.136;10.366;2023-04-19T07:20:27;17.50;;;11.98;;
20431;SDS011;10375;49.136;10.366;2023-04-19T07:22:54;16.05;;;12.27;;
20431;SDS011;10375;49.136;10.366;2023-04-19T07:25:21;18.05;;;12.88;;
20431;SDS011;10375;49.136;10.366;2023-04-19T07:27:48;19.60;;;12.98;;
20431;SDS011;10375;49.136;10.366;2023-04-19T07:30:17;16.45;;;11.50;;
20431;SDS011;10375;49.136;10.366;2023-04-19T07:32:44;17.63;;;11.85;;
20431;SDS011;10375;49.136;10.366;2023-04-19T07:35:12;19.63;;;12.73;;
20431;SDS011;10375;49.136;10.366;2023-04-19T07:37:39;18.63;;;12.40;;
20431;SDS011;10375;49.136;10.366;2023-04-19T07:40:06;20.20;;;12.93;;
20431;SDS011;10375;49.136;10.366;2023-04-19T07:42:33;19.33;;;12.88;;
20431;SDS011;10375;49.136;10.366;2023-04-19T07:45:00;17.42;;;12.95;;
20431;SDS011;10375;49.136;10.366;2023-04-19T07:47:28;18.35;;;12.30;;
20431;SDS011;10375;49.136;10.366;2023-04-19T07:49:56;19.33;;;12.98;;
20431;SDS011;10375;49.136;10.366;2023-04-19T07:52:26;17.80;;;11.88;;
20431;SDS011;10375;49.136;10.366;2023-04-19T07:54:54;19.23;;;12.73;;
20431;SDS011;10375;49.136;10.366;2023-04-19T07:57:22;21.35;;;13.25;;
20431;SDS011;10375;49.136;10.366;2023-04-19T07:59:49;18.58;;;13.70;;
20431;SDS011;10375;49.136;10.366;2023-04-19T08:02:16;22.53;;;14.20;;
20431;SDS011;10375;49.136;10.366;2023-04-19T08:04:44;18.80;;;13.75;;
20431;SDS011;10375;49.136;10.366;2023-04-19T08:07:14;19.70;;;14.15;;
20431;SDS011;10375;49.136;10.366;2023-04-19T08:09:41;25.20;;;15.45;;
20431;SDS011;10375;49.136;10.366;2023-04-19T08:12:08;20.63;;;14.35;;
20431;SDS011;10375;49.136;10.366;2023-04-19T08:14:40;23.40;;;15.13;;
20431;SDS011;10375;49.136;10.366;2023-04-19T08:17:25;20.90;;;15.48;;
20431;SDS011;10375;49.136;10.366;2023-04-19T08:20:02;27.10;;;16.50;;
20431;SDS011;10375;49.136;10.366;2023-04-19T08:22:32;25.88;;;16.40;;
20431;SDS011;10375;49.136;10.366;2023-04-19T08:24:59;22.30;;;15.63;;
20431;SDS011;10375;49.136;10.366;2023-04-19T08:27:26;21.65;;;15.15;;
20431;SDS011;10375;49.136;10.366;2023-04-19T08:29:53;18.85;;;13.55;;
20431;SDS011;10375;49.136;10.366;2023-04-19T08:32:20;21.30;;;13.52;;
20431;SDS011;10375;49.136;10.366;2023-04-19T08:34:47;19.00;;;14.02;;
20431;SDS011;10375;49.136;10.366;2023-04-19T08:37:15;26.05;;;15.20;;
20431;SDS011;10375;49.136;10.366;2023-04-19T08:39:42;20.38;;;13.18;;
20431;SDS011;10375;49.136;10.366;2023-04-19T08:42:09;21.30;;;12.70;;
20431;SDS011;10375;49.136;10.366;2023-04-19T08:44:56;18.73;;;13.52;;
20431;SDS011;10375;49.136;10.366;2023-04-19T08:47:29;17.77;;;13.35;;
20431;SDS011;10375;49.136;10.366;2023-04-19T08:50:13;19.45;;;13.48;;
20431;SDS011;10375;49.136;10.366;2023-04-19T08:52:58;19.35;;;14.00;;
20431;SDS011;10375;49.136;10.366;2023-04-19T08:55:46;21.15;;;13.88;;
20431;SDS011;10375;49.136;10.366;2023-04-19T08:58:18;20.10;;;15.00;;
20431;SDS011;10375;49.136;10.366;2023-04-19T09:01:05;21.55;;;15.00;;
20431;SDS011;10375;49.136;10.366;2023-04-19T09:03:42;21.73;;;14.48;;
20431;SDS011;10375;49.136;10.366;2023-04-19T09:06:28;19.33;;;14.20;;
20431;SDS011;10375;49.136;10.366;2023-04-19T09:12:14;21.23;;;15.85;;
20431;SDS011;10375;49.136;10.366;2023-04-19T09:14:43;21.40;;;15.10;;
20431;SDS011;10375;49.136;10.366;2023-04-19T09:17:15;24.80;;;16.02;;
20431;SDS011;10375;49.136;10.366;2023-04-19T09:19:46;24.75;;;17.90;;
20431;SDS011;10375;49.136;10.366;2023-04-19T09:22:14;26.52;;;16.15;;
20431;SDS011;10375;49.136;10.366;2023-04-19T09:24:43;24.45;;;15.93;;
20431;SDS011;10375;49.136;10.366;2023-04-19T09:27:32;26.45;;;17.73;;
20431;SDS011;10375;49.136;10.366;2023-04-19T09:30:00;27.65;;;17.15;;
20431;SDS011;10375;49.136;10.366;2023-04-19T09:32:43;23.85;;;16.92;;
20431;SDS011;10375;49.136;10.366;2023-04-19T09:35:12;26.75;;;16.88;;
20431;SDS011;10375;49.136;10.366;2023-04-19T09:37:40;25.50;;;17.75;;
20431;SDS011;10375;49.136;10.366;2023-04-19T09:40:22;28.42;;;18.45;;
20431;SDS011;10375;49.136;10.366;2023-04-19T09:42:50;25.60;;;17.40;;
20431;SDS011;10375;49.136;10.366;2023-04-19T09:45:20;24.25;;;17.33;;
20431;SDS011;10375;49.136;10.366;2023-04-19T09:48:00;28.75;;;17.65;;
20431;SDS011;10375;49.136;10.366;2023-04-19T09:50:29;29.42;;;19.40;;
20431;SDS011;10375;49.136;10.366;2023-04-19T09:52:57;25.52;;;18.95;;
20431;SDS011;10375;49.136;10.366;2023-04-19T09:55:25;28.92;;;19.67;;
20431;SDS011;10375;49.136;10.366;2023-04-19T09:57:56;26.77;;;18.38;;
20431;SDS011;10375;49.136;10.366;2023-04-19T10:00:23;26.98;;;18.95;;
20431;SDS011;10375;49.136;10.366;2023-04-19T10:02:52;23.10;;;16.63;;
20431;SDS011;10375;49.136;10.366;2023-04-19T10:05:24;22.65;;;14.07;;
20431;SDS011;10375;49.136;10.366;2023-04-19T10:07:52;17.48;;;13.57;;
20431;SDS011;10375;49.136;10.366;2023-04-19T10:10:25;19.58;;;14.85;;
20431;SDS011;10375;49.136;10.366;2023-04-19T10:13:09;23.73;;;17.10;;
20431;SDS011;10375;49.136;10.366;2023-04-19T10:15:47;25.42;;;17.25;;
20431;SDS011;10375;49.136;10.366;2023-04-19T10:18:22;24.83;;;16.83;;
20431;SDS011;10375;49.136;10.366;2023-04-19T10:23:20;24.95;;;17.85;;
20431;SDS011;10375;49.136;10.366;2023-04-19T10:25:54;27.63;;;18.43;;
20431;SDS011;10375;49.136;10.366;2023-04-19T10:28:28;22.85;;;16.10;;
20431;SDS011;10375;49.136;10.366;2023-04-19T10:31:00;23.93;;;16.37;;
20431;SDS011;10375;49.136;10.366;2023-04-19T10:33:35;22.45;;;16.35;;
20431;SDS011;10375;49.136;10.366;2023-04-19T10:36:03;25.57;;;15.83;;
20431;SDS011;10375;49.136;10.366;2023-04-19T10:38:35;22.57;;;16.07;;
20431;SDS011;10375;49.136;10.366;2023-04-19T10:41:02;18.42;;;14.60;;
20431;SDS011;10375;49.136;10.366;2023-04-19T10:43:33;21.50;;;15.27;;
20431;SDS011;10375;49.136;10.366;2023-04-19T10:46:04;18.23;;;13.57;;
20431;SDS011;10375;49.136;10.366;2023-04-19T10:48:32;18.85;;;13.48;;
20431;SDS011;10375;49.136;10.366;2023-04-19T10:53:50;17.73;;;12.77;;
20431;SDS011;10375;49.136;10.366;2023-04-19T10:56:20;15.15;;;11.88;;
20431;SDS011;10375;49.136;10.366;2023-04-19T11:01:37;16.33;;;11.20;;
20431;SDS011;10375;49.136;10.366;2023-04-19T11:04:08;17.10;;;11.57;;
20431;SDS011;10375;49.136;10.366;2023-04-19T11:06:37;15.47;;;11.23;;
20431;SDS011;10375;49.136;10.366;2023-04-19T11:09:22;14.55;;;10.63;;
20431;SDS011;10375;49.136;10.366;2023-04-19T11:11:51;16.02;;;10.10;;
20431;SDS011;10375;49.136;10.366;2023-04-19T11:14:19;14.87;;;10.43;;
20431;SDS011;10375;49.136;10.366;2023-04-19T11:16:47;16.48;;;10.70;;
20431;SDS011;10375;49.136;10.366;2023-04-19T11:19:14;17.02;;;9.50;;
20431;SDS011;10375;49.136;10.366;2023-04-19T11:21:45;14.90;;;10.57;;
20431;SDS011;10375;49.136;10.366;2023-04-19T11:24:13;13.50;;;9.70;;
20431;SDS011;10375;49.136;10.366;2023-04-19T11:26:41;13.40;;;8.67;;
20431;SDS011;10375;49.136;10.366;2023-04-19T11:29:09;15.18;;;10.10;;
20431;SDS011;10375;49.136;10.366;2023-04-19T11:31:38;13.48;;;9.13;;
20431;SDS011;10375;49.136;10.366;2023-04-19T11:34:05;13.18;;;8.85;;
20431;SDS011;10375;49.136;10.366;2023-04-19T11:36:32;11.23;;;9.27;;
20431;SDS011;10375;49.136;10.366;2023-04-19T11:39:05;12.18;;;7.97;;
20431;SDS011;10375;49.136;10.366;2023-04-19T11:41:38;12.90;;;9.05;;
20431;SDS011;10375;49.136;10.366;2023-04-19T11:44:15;11.52;;;8.45;;
20431;SDS011;10375;49.136;10.366;2023-04-19T11:46:58;11.68;;;8.85;;
20431;SDS011;10375;49.136;10.366;2023-04-19T11:49:27;16.25;;;7.70;;
20431;SDS011;10375;49.136;10.366;2023-04-19T11:51:56;16.05;;;8.38;;
20431;SDS011;10375;49.136;10.366;2023-04-19T11:54:24;17.02;;;8.52;;
20431;SDS011;10375;49.136;10.366;2023-04-19T11:57:10;10.90;;;7.35;;
20431;SDS011;10375;49.136;10.366;2023-04-19T11:59:37;12.55;;;8.57;;
20431;SDS011;10375;49.136;10.366;2023-04-19T12:02:08;9.60;;;7.65;;
20431;SDS011;10375;49.136;10.366;2023-04-19T12:04:37;11.43;;;8.13;;
20431;SDS011;10375;49.136;10.366;2023-04-19T12:07:05;10.60;;;7.75;;
20431;SDS011;10375;49.136;10.366;2023-04-19T12:09:33;10.15;;;7.18;;
20431;SDS011;10375;49.136;10.366;2023-04-19T12:12:01;10.57;;;8.02;;
20431;SDS011;10375;49.136;10.366;2023-04-19T12:14:30;11.52;;;7.80;;
20431;SDS011;10375;49.136;10.366;2023-04-19T12:17:05;10.48;;;7.82;;
20431;SDS011;10375;49.136;10.366;2023-04-19T12:19:34;8.30;;;6.43;;
20431;SDS011;10375;49.136;10.366;2023-04-19T12:22:06;11.27;;;7.22;;
20431;SDS011;10375;49.136;10.366;2023-04-19T12:24:37;9.57;;;7.10;;
20431;SDS011;10375;49.136;10.366;2023-04-19T12:27:05;11.15;;;7.65;;
20431;SDS011;10375;49.136;10.366;2023-04-19T12:29:33;8.45;;;6.85;;
20431;SDS011;10375;49.136;10.366;2023-04-19T12:32:00;8.73;;;6.15;;
20431;SDS011;10375;49.136;10.366;2023-04-19T12:34:27;9.23;;;6.75;;
20431;SDS011;10375;49.136;10.366;2023-04-19T12:36:55;13.00;;;7.22;;
20431;SDS011;10375;49.136;10.366;2023-04-19T12:39:22;10.38;;;7.20;;
20431;SDS011;10375;49.136;10.366;2023-04-19T12:41:49;7.30;;;6.10;;
20431;SDS011;10375;49.136;10.366;2023-04-19T12:44:16;9.90;;;7.03;;
20431;SDS011;10375;49.136;10.366;2023-04-19T12:46:43;9.70;;;6.50;;
20431;SDS011;10375;49.136;10.366;2023-04-19T12:49:10;10.88;;;7.22;;
20431;SDS011;10375;49.136;10.366;2023-04-19T12:51:38;14.20;;;7.07;;
20431;SDS011;10375;49.136;10.366;2023-04-19T12:54:05;10.10;;;6.95;;
20431;SDS011;10375;49.136;10.366;2023-04-19T12:56:33;10.70;;;7.10;;
20431;SDS011;10375;49.136;10.366;2023-04-19T12:59:00;10.43;;;7.05;;
20431;SDS011;10375;49.136;10.366;2023-04-19T13:01:28;7.82;;;6.15;;
20431;SDS011;10375;49.136;10.366;2023-04-19T13:03:57;9.88;;;6.93;;
20431;SDS011;10375;49.136;10.366;2023-04-19T13:06:25;7.70;;;6.25;;
20431;SDS011;10375;49.136;10.366;2023-04-19T13:08:53;9.18;;;6.05;;
20431;SDS011;10375;49.136;10.366;2023-04-19T13:11:20;10.25;;;6.50;;
20431;SDS011;10375;49.136;10.366;2023-04-19T13:13:49;10.48;;;6.72;;
20431;SDS011;10375;49.136;10.366;2023-04-19T13:16:17;8.30;;;5.90;;
20431;SDS011;10375;49.136;10.366;2023-04-19T13:18:44;11.77;;;6.68;;
20431;SDS011;10375;49.136;10.366;2023-04-19T13:21:11;9.20;;;6.57;;
20431;SDS011;10375;49.136;10.366;2023-04-19T13:23:39;10.32;;;6.55;;
20431;SDS011;10375;49.136;10.366;2023-04-19T13:26:07;9.75;;;6.95;;
20431;SDS011;10375;49.136;10.366;2023-04-19T13:28:34;13.52;;;7.38;;
20431;SDS011;10375;49.136;10.366;2023-04-19T13:31:02;12.10;;;7.03;;
20431;SDS011;10375;49.136;10.366;2023-04-19T13:33:30;9.90;;;5.28;;
20431;SDS011;10375;49.136;10.366;2023-04-19T13:35:57;11.57;;;6.35;;
20431;SDS011;10375;49.136;10.366;2023-04-19T13:38:24;12.35;;;5.60;;
20431;SDS011;10375;49.136;10.366;2023-04-19T13:40:51;20.45;;;5.65;;
20431;SDS011;10375;49.136;10.366;2023-04-19T13:43:18;388.45;;;33.45;;
20431;SDS011;10375;49.136;10.366;2023-04-19T13:45:46;72.18;;;8.30;;
20431;SDS011;10375;49.136;10.366;2023-04-19T13:48:13;5.45;;;3.88;;
20431;SDS011;10375;49.136;10.366;2023-04-19T13:50:40;10.57;;;4.13;;
20431;SDS011;10375;49.136;10.366;2023-04-19T13:53:07;7.80;;;4.32;;
20431;SDS011;10375;49.136;10.366;2023-04-19T13:55:34;7.47;;;4.18;;
20431;SDS011;10375;49.136;10.366;2023-04-19T13:58:01;5.88;;;3.65;;
20431;SDS011;10375;49.136;10.366;2023-04-19T14:00:28;8.07;;;4.22;;
20431;SDS011;10375;49.136;10.366;2023-04-19T14:02:56;6.10;;;3.67;;
20431;SDS011;10375;49.136;10.366;2023-04-19T14:05:23;5.25;;;3.17;;
20431;SDS011;10375;49.136;10.366;2023-04-19T14:07:50;5.82;;;3.08;;
20431;SDS011;10375;49.136;10.366;2023-04-19T14:10:17;4.05;;;3.08;;
20431;SDS011;10375;49.136;10.366;2023-04-19T14:12:45;6.65;;;2.25;;
20431;SDS011;10375;49.136;10.366;2023-04-19T14:15:12;5.47;;;2.15;;
20431;SDS011;10375;49.136;10.366;2023-04-19T14:17:40;5.57;;;3.17;;
20431;SDS011;10375;49.136;10.366;2023-04-19T14:20:07;3.70;;;2.17;;
20431;SDS011;10375;49.136;10.366;2023-04-19T14:22:34;4.53;;;1.58;;
20431;SDS011;10375;49.136;10.366;2023-04-19T14:25:01;3.35;;;1.95;;
20431;SDS011;10375;49.136;10.366;2023-04-19T14:27:29;2.13;;;1.70;;
20431;SDS011;10375;49.136;10.366;2023-04-19T14:29:56;4.93;;;1.83;;
20431;SDS011;10375;49.136;10.366;2023-04-19T14:32:24;3.45;;;1.98;;